Time;durP1;ratioP1;P1;durP2;ratioP2;P2;SDS_P1;SDS_P2;PMS_P1;PMS_P2;Temp;Humidity;BMP_temperature;BMP_pressure;BME280_temperature;BME280_humidity;BME280_pressure;Samples;Min_cycle;Max_cycle;Signal;HPM_P1;HPM_P2
2021/07/28 00:01:59;;;;;;;7.50;6.40;;;;;;;;;;5053969;28;20555;-61
2021/07/28 00:04:24;;;;;;;7.03;6.20;;;;;;;;;;5053632;28;20452;-61
2021/07/28 00:06:50;;;;;;;7.63;6.93;;;;;;;;;;5053665;28;20296;-61
2021/07/28 00:09:15;;;;;;;8.07;6.67;;;;;;;;;;5053382;28;20209;-61
2021/07/28 00:11:40;;;;;;;6.57;5.93;;;;;;;;;;5053649;28;20216;-61
2021/07/28 00:14:06;;;;;;;6.50;6.00;;;;;;;;;;5053247;28;20290;-61
2021/07/28 00:16:31;;;;;;;6.73;6.13;;;;;;;;;;5053915;28;20315;-61
2021/07/28 00:19:06;;;;;;;8.60;6.27;;;;;;;;;;5052552;28;20233;-61
2021/07/28 00:24:15;;;;;;;6.67;6.07;;;;;;;;;;5054165;28;20505;-61
2021/07/28 00:26:40;;;;;;;7.27;6.67;;;;;;;;;;5056661;28;20464;-59
2021/07/28 00:29:06;;;;;;;6.57;5.93;;;;;;;;;;5057880;28;20296;-62
2021/07/28 00:31:31;;;;;;;7.07;6.30;;;;;;;;;;5057154;28;20228;-60
2021/07/28 00:33:56;;;;;;;6.83;6.13;;;;;;;;;;5057705;28;20302;-61
2021/07/28 00:36:22;;;;;;;6.73;6.20;;;;;;;;;;5057132;28;20355;-61
2021/07/28 00:38:47;;;;;;;8.47;6.93;;;;;;;;;;5057542;28;20244;-60
2021/07/28 00:41:14;;;;;;;6.67;6.07;;;;;;;;;;5056959;28;20227;-61
2021/07/28 00:43:39;;;;;;;6.50;5.90;;;;;;;;;;5057652;28;20224;-61
2021/07/28 00:46:05;;;;;;;6.97;6.27;;;;;;;;;;5057424;28;20484;-61
2021/07/28 00:48:30;;;;;;;6.13;5.63;;;;;;;;;;5057079;28;20583;-61
2021/07/28 00:50:55;;;;;;;7.20;6.50;;;;;;;;;;5057390;28;20299;-61
2021/07/28 00:53:21;;;;;;;6.67;5.97;;;;;;;;;;5056226;28;20275;-60
2021/07/28 00:55:48;;;;;;;6.50;5.90;;;;;;;;;;5036416;28;20616;-61
2021/07/28 00:58:14;;;;;;;6.80;6.20;;;;;;;;;;5036696;28;20464;-60
2021/07/28 01:00:39;;;;;;;6.37;5.77;;;;;;;;;;5037207;28;20780;-61
2021/07/28 01:03:04;;;;;;;6.53;5.93;;;;;;;;;;5037261;28;20957;-61
2021/07/28 01:05:30;;;;;;;6.60;6.10;;;;;;;;;;5035795;28;20624;-61
2021/07/28 01:07:55;;;;;;;6.73;6.13;;;;;;;;;;5036658;28;20225;-61
2021/07/28 01:10:20;;;;;;;7.17;6.57;;;;;;;;;;5036418;28;20328;-60
2021/07/28 01:12:51;;;;;;;6.80;6.30;;;;;;;;;;5045579;28;20233;-61
2021/07/28 01:15:54;;;;;;;6.93;6.23;;;;;;;;;;5056527;28;20229;-62
2021/07/28 01:18:13;;;;;;;7.10;6.23;;;;;;;;;;5055348;28;20467;-61
2021/07/28 01:20:47;;;;;;;6.40;5.80;;;;;;;;;;5055499;28;20513;-61
2021/07/28 01:23:23;;;;;;;6.97;5.60;;;;;;;;;;5056690;28;20832;-62
2021/07/28 01:25:50;;;;;;;6.73;5.97;;;;;;;;;;5056419;28;20458;-61
2021/07/28 01:28:15;;;;;;;7.43;6.10;;;;;;;;;;5056617;28;20468;-61
2021/07/28 01:30:42;;;;;;;7.87;5.33;;;;;;;;;;5056069;28;20475;-61
2021/07/28 01:33:07;;;;;;;5.73;5.17;;;;;;;;;;5056246;28;20217;-61
2021/07/28 01:35:36;;;;;;;6.20;5.60;;;;;;;;;;5055652;28;20466;-61
2021/07/28 01:38:03;;;;;;;6.93;6.33;;;;;;;;;;5055506;28;20592;-61
2021/07/28 01:40:28;;;;;;;6.33;5.73;;;;;;;;;;5055106;28;20490;-61
2021/07/28 01:42:53;;;;;;;7.07;6.10;;;;;;;;;;5056407;28;20452;-61
2021/07/28 01:45:18;;;;;;;6.10;5.50;;;;;;;;;;5056241;28;20558;-61
2021/07/28 01:47:44;;;;;;;6.07;5.57;;;;;;;;;;5055890;28;20287;-60
2021/07/28 01:50:11;;;;;;;6.67;5.97;;;;;;;;;;5056183;28;20689;-61
2021/07/28 01:52:38;;;;;;;5.77;5.30;;;;;;;;;;5055800;28;20699;-61
2021/07/28 01:55:04;;;;;;;6.77;6.17;;;;;;;;;;5056091;28;20520;-61
2021/07/28 01:57:30;;;;;;;6.70;6.10;;;;;;;;;;5055660;28;20903;-61
2021/07/28 02:00:00;;;;;;;7.80;6.37;;;;;;;;;;5055916;28;20456;-61
2021/07/28 02:02:28;;;;;;;6.57;5.97;;;;;;;;;;5055595;28;20645;-61
2021/07/28 02:04:56;;;;;;;6.37;5.87;;;;;;;;;;5056010;28;20467;-61
2021/07/28 02:07:21;;;;;;;7.27;6.53;;;;;;;;;;5056189;28;20783;-61
2021/07/28 02:09:47;;;;;;;6.60;6.10;;;;;;;;;;5054457;28;20459;-61
2021/07/28 02:12:12;;;;;;;6.30;5.70;;;;;;;;;;5055486;28;20318;-60
2021/07/28 02:14:37;;;;;;;8.20;5.73;;;;;;;;;;5055372;28;20228;-61
2021/07/28 02:17:03;;;;;;;6.60;5.90;;;;;;;;;;5055547;28;20669;-61
2021/07/28 02:19:28;;;;;;;5.90;5.40;;;;;;;;;;5055261;28;20225;-60
2021/07/28 02:21:53;;;;;;;7.03;6.43;;;;;;;;;;5055486;28;20221;-61
2021/07/28 02:24:19;;;;;;;5.97;5.40;;;;;;;;;;5055701;28;20308;-64
2021/07/28 02:26:44;;;;;;;5.87;5.37;;;;;;;;;;5051249;28;20258;-66
2021/07/28 02:29:09;;;;;;;6.10;5.60;;;;;;;;;;5034766;28;20377;-65
2021/07/28 02:31:35;;;;;;;6.30;5.80;;;;;;;;;;5044178;28;20303;-66
2021/07/28 02:34:01;;;;;;;5.47;5.07;;;;;;;;;;5067617;28;20274;-60
2021/07/28 02:36:26;;;;;;;6.47;5.73;;;;;;;;;;5066257;28;20551;-61
2021/07/28 02:38:51;;;;;;;5.57;5.07;;;;;;;;;;5061195;28;20229;-61
2021/07/28 02:41:16;;;;;;;7.23;6.53;;;;;;;;;;5063508;28;20312;-60
2021/07/28 02:43:42;;;;;;;5.50;5.00;;;;;;;;;;5068079;28;20296;-61
2021/07/28 02:46:08;;;;;;;6.43;5.60;;;;;;;;;;5065802;28;20323;-61
2021/07/28 02:48:34;;;;;;;5.87;5.40;;;;;;;;;;5056814;28;20228;-62
2021/07/28 02:50:59;;;;;;;5.93;5.43;;;;;;;;;;5064830;28;20228;-60
2021/07/28 02:53:24;;;;;;;7.10;6.50;;;;;;;;;;5061507;28;20512;-61
2021/07/28 02:55:50;;;;;;;6.60;6.00;;;;;;;;;;5064809;28;20564;-61
2021/07/28 02:58:15;;;;;;;6.37;5.77;;;;;;;;;;5068333;28;20252;-60
2021/07/28 03:00:40;;;;;;;8.87;8.07;;;;;;;;;;5062157;28;20323;-61
2021/07/28 03:03:08;;;;;;;8.00;7.30;;;;;;;;;;5068052;28;20227;-61
2021/07/28 03:05:33;;;;;;;18.37;16.57;;;;;;;;;;5064111;28;20564;-61
2021/07/28 03:07:58;;;;;;;15.40;13.13;;;;;;;;;;5061014;28;20459;-61
2021/07/28 03:10:24;;;;;;;15.60;14.10;;;;;;;;;;5065076;28;20242;-61
2021/07/28 03:12:49;;;;;;;8.70;7.90;;;;;;;;;;5057757;28;20321;-60
2021/07/28 03:15:14;;;;;;;7.23;5.80;;;;;;;;;;5064030;28;20282;-61
2021/07/28 03:17:39;;;;;;;8.40;7.70;;;;;;;;;;5057581;28;20596;-61
2021/07/28 03:20:05;;;;;;;7.57;5.60;;;;;;;;;;5063969;28;20311;-62
2021/07/28 03:22:30;;;;;;;13.60;12.40;;;;;;;;;;5060466;28;20228;-62
2021/07/28 03:24:56;;;;;;;7.40;6.67;;;;;;;;;;5063839;28;20606;-62
2021/07/28 03:27:21;;;;;;;9.47;7.33;;;;;;;;;;5062431;28;20233;-62
2021/07/28 03:29:46;;;;;;;13.67;10.90;;;;;;;;;;5062533;28;20559;-61
2021/07/28 03:32:11;;;;;;;12.67;11.37;;;;;;;;;;5055783;28;20236;-60
2021/07/28 03:34:38;;;;;;;7.87;7.07;;;;;;;;;;5063903;28;20558;-61
2021/07/28 03:37:03;;;;;;;10.13;9.13;;;;;;;;;;5067631;28;20636;-61
2021/07/28 03:39:29;;;;;;;7.30;6.70;;;;;;;;;;5063952;28;20494;-60
2021/07/28 03:41:55;;;;;;;8.10;6.53;;;;;;;;;;5059840;28;20227;-61
2021/07/28 03:44:20;;;;;;;7.27;6.57;;;;;;;;;;5064352;28;20468;-61
2021/07/28 03:46:45;;;;;;;7.00;6.40;;;;;;;;;;5066791;28;20613;-61
2021/07/28 03:49:11;;;;;;;15.73;14.20;;;;;;;;;;5063644;28;20239;-60
2021/07/28 03:51:36;;;;;;;13.23;11.93;;;;;;;;;;5059979;28;20286;-61
2021/07/28 03:54:01;;;;;;;8.80;7.97;;;;;;;;;;5064403;28;20260;-61
2021/07/28 03:56:26;;;;;;;9.40;6.97;;;;;;;;;;5049543;28;20247;-61
2021/07/28 03:58:53;;;;;;;11.00;9.90;;;;;;;;;;5062506;28;20315;-61
2021/07/28 04:01:20;;;;;;;7.70;6.90;;;;;;;;;;5057440;28;20256;-60
2021/07/28 04:03:45;;;;;;;8.20;7.40;;;;;;;;;;5062713;28;20510;-62
2021/07/28 04:06:10;;;;;;;7.00;6.40;;;;;;;;;;5060123;28;20540;-61
2021/07/28 04:08:35;;;;;;;10.10;8.27;;;;;;;;;;5064040;28;20649;-62
2021/07/28 04:11:01;;;;;;;8.93;8.13;;;;;;;;;;5066843;28;20255;-61
2021/07/28 04:13:26;;;;;;;8.80;8.10;;;;;;;;;;5053431;28;20232;-61
2021/07/28 04:15:51;;;;;;;10.97;9.70;;;;;;;;;;5066624;28;20300;-61
2021/07/28 04:18:16;;;;;;;9.60;8.80;;;;;;;;;;5053397;28;20233;-60
2021/07/28 04:20:42;;;;;;;7.63;6.93;;;;;;;;;;5066437;28;20692;-61
2021/07/28 04:23:07;;;;;;;6.87;6.23;;;;;;;;;;5061988;28;20221;-61
2021/07/28 04:25:32;;;;;;;9.53;8.23;;;;;;;;;;5060139;28;20225;-61
2021/07/28 04:27:57;;;;;;;8.33;7.63;;;;;;;;;;5062439;28;20309;-61
2021/07/28 04:30:23;;;;;;;59.67;53.20;;;;;;;;;;5048239;28;20224;-61
2021/07/28 04:32:48;;;;;;;31.33;27.60;;;;;;;;;;5066201;28;20553;-59
2021/07/28 04:35:15;;;;;;;23.93;21.53;;;;;;;;;;5056405;28;20303;-61
2021/07/28 04:37:40;;;;;;;38.97;34.93;;;;;;;;;;5066384;28;20235;-61
2021/07/28 04:40:06;;;;;;;24.40;21.13;;;;;;;;;;5060620;28;20459;-61
2021/07/28 04:42:32;;;;;;;9.70;8.20;;;;;;;;;;5059995;28;20228;-61
2021/07/28 04:44:57;;;;;;;20.40;18.30;;;;;;;;;;5064491;28;20217;-60
2021/07/28 04:47:22;;;;;;;16.33;14.73;;;;;;;;;;5066805;28;20523;-62
2021/07/28 04:49:48;;;;;;;14.40;13.00;;;;;;;;;;5058988;28;20224;-61
2021/07/28 04:52:13;;;;;;;25.20;22.57;;;;;;;;;;5059807;28;20228;-61
2021/07/28 04:54:38;;;;;;;11.27;10.20;;;;;;;;;;5066079;28;20296;-61
2021/07/28 04:57:04;;;;;;;13.13;11.63;;;;;;;;;;5066693;28;20236;-60
2021/07/28 04:59:30;;;;;;;13.67;12.37;;;;;;;;;;5046565;28;20248;-60
2021/07/28 05:01:55;;;;;;;8.40;7.60;;;;;;;;;;5059475;28;20529;-61
2021/07/28 05:04:20;;;;;;;13.23;11.87;;;;;;;;;;5066452;28;20213;-60
2021/07/28 05:06:46;;;;;;;16.57;14.97;;;;;;;;;;5065680;28;20271;-61
2021/07/28 05:09:12;;;;;;;15.33;13.70;;;;;;;;;;5059569;28;20216;-61
2021/07/28 05:11:38;;;;;;;12.43;11.23;;;;;;;;;;5062455;28;20283;-61
2021/07/28 05:14:03;;;;;;;13.03;11.77;;;;;;;;;;5062610;28;20459;-61
2021/07/28 05:16:28;;;;;;;10.03;9.13;;;;;;;;;;5062963;28;20220;-60
2021/07/28 05:18:54;;;;;;;11.43;10.43;;;;;;;;;;5061914;28;20274;-61
2021/07/28 05:21:19;;;;;;;11.80;10.70;;;;;;;;;;5064035;28;20360;-61
2021/07/28 05:23:44;;;;;;;13.33;11.20;;;;;;;;;;5069546;28;20645;-61
2021/07/28 05:26:10;;;;;;;11.83;9.87;;;;;;;;;;5069039;28;20220;-61
2021/07/28 05:28:35;;;;;;;10.07;9.27;;;;;;;;;;5050823;28;20208;-60
2021/07/28 05:31:00;;;;;;;10.50;9.40;;;;;;;;;;5056956;28;20309;-61
2021/07/28 05:33:26;;;;;;;11.23;10.17;;;;;;;;;;5069790;28;20225;-60
2021/07/28 05:35:51;;;;;;;9.00;8.10;;;;;;;;;;5058707;28;20637;-61
2021/07/28 05:38:16;;;;;;;9.83;8.40;;;;;;;;;;5069380;28;20653;-61
2021/07/28 05:40:42;;;;;;;8.37;7.67;;;;;;;;;;5068442;28;20303;-61
2021/07/28 05:43:07;;;;;;;55.17;48.27;;;;;;;;;;5062442;28;20228;-63
2021/07/28 05:45:32;;;;;;;32.30;27.50;;;;;;;;;;5063901;28;20294;-60
2021/07/28 05:47:58;;;;;;;24.30;21.30;;;;;;;;;;5069136;28;20282;-60
2021/07/28 05:50:23;;;;;;;16.77;14.67;;;;;;;;;;5068049;28;20244;-61
2021/07/28 05:52:48;;;;;;;32.23;28.80;;;;;;;;;;5061974;28;20216;-61
2021/07/28 05:55:13;;;;;;;9.63;8.67;;;;;;;;;;5063522;28;20217;-61
2021/07/28 05:57:39;;;;;;;21.10;19.03;;;;;;;;;;5069162;28;20283;-62
2021/07/28 06:00:05;;;;;;;19.10;17.07;;;;;;;;;;5066668;28;20244;-61
2021/07/28 06:02:30;;;;;;;16.37;14.87;;;;;;;;;;5062428;28;20212;-60
2021/07/28 06:04:55;;;;;;;9.47;7.07;;;;;;;;;;5064510;28;20468;-60
2021/07/28 06:07:21;;;;;;;14.67;12.93;;;;;;;;;;5069186;28;20591;-61
2021/07/28 06:09:46;;;;;;;17.43;15.67;;;;;;;;;;5065703;28;20235;-61
2021/07/28 06:12:11;;;;;;;15.47;13.83;;;;;;;;;;5058199;28;20701;-60
2021/07/28 06:14:36;;;;;;;15.63;14.10;;;;;;;;;;5065807;28;20220;-61
2021/07/28 06:17:02;;;;;;;20.30;18.13;;;;;;;;;;5058219;28;20217;-61
2021/07/28 06:19:27;;;;;;;24.10;21.60;;;;;;;;;;5065482;28;20718;-61
2021/07/28 06:21:53;;;;;;;24.30;21.90;;;;;;;;;;5058184;28;20209;-62
2021/07/28 06:24:18;;;;;;;14.53;13.03;;;;;;;;;;5056445;28;20246;-61
2021/07/28 06:26:43;;;;;;;13.43;12.07;;;;;;;;;;5068410;28;20276;-62
2021/07/28 06:29:08;;;;;;;15.97;14.37;;;;;;;;;;5044171;28;20316;-60
2021/07/28 06:31:34;;;;;;;11.00;9.00;;;;;;;;;;5065084;28;20299;-61
2021/07/28 06:33:59;;;;;;;17.43;15.70;;;;;;;;;;5063551;28;20228;-61
2021/07/28 06:36:24;;;;;;;27.63;23.87;;;;;;;;;;5062489;28;20219;-61
2021/07/28 06:38:49;;;;;;;37.90;33.57;;;;;;;;;;5064240;28;20733;-61
2021/07/28 06:41:15;;;;;;;10.07;9.17;;;;;;;;;;5068499;28;20233;-61
2021/07/28 06:43:40;;;;;;;7.70;6.97;;;;;;;;;;5065271;28;20589;-60
2021/07/28 06:46:05;;;;;;;16.10;14.50;;;;;;;;;;5060565;28;20874;-60
2021/07/28 06:48:31;;;;;;;16.47;14.13;;;;;;;;;;5065568;28;20679;-62
2021/07/28 06:50:56;;;;;;;24.00;21.60;;;;;;;;;;5067767;28;20307;-60
2021/07/28 06:53:21;;;;;;;17.60;14.90;;;;;;;;;;5064255;28;20224;-62
2021/07/28 06:55:47;;;;;;;25.73;23.00;;;;;;;;;;5060031;28;20217;-61
2021/07/28 06:58:12;;;;;;;32.47;29.00;;;;;;;;;;5060925;28;20303;-61
2021/07/28 07:00:37;;;;;;;29.47;24.23;;;;;;;;;;5061782;28;20239;-62
2021/07/28 07:03:02;;;;;;;28.30;24.73;;;;;;;;;;5066453;28;20213;-60
2021/07/28 07:05:28;;;;;;;17.80;15.90;;;;;;;;;;5067185;28;20659;-61
2021/07/28 07:07:53;;;;;;;16.40;14.60;;;;;;;;;;5060507;28;20217;-60
2021/07/28 07:10:19;;;;;;;24.20;15.80;;;;;;;;;;5061751;28;20664;-61
2021/07/28 07:12:44;;;;;;;19.50;17.40;;;;;;;;;;5070448;28;20244;-61
2021/07/28 07:15:09;;;;;;;17.20;14.40;;;;;;;;;;5065036;28;20244;-61
2021/07/28 07:17:35;;;;;;;15.57;13.90;;;;;;;;;;5064445;28;20319;-60
2021/07/28 07:20:00;;;;;;;14.63;12.33;;;;;;;;;;5073700;28;20311;-60
2021/07/28 07:22:26;;;;;;;15.33;12.37;;;;;;;;;;5059339;28;20236;-60
2021/07/28 07:24:51;;;;;;;10.63;9.60;;;;;;;;;;5071290;28;20491;-61
2021/07/28 07:27:17;;;;;;;12.03;10.83;;;;;;;;;;5060589;28;20225;-61
2021/07/28 07:29:43;;;;;;;10.77;9.03;;;;;;;;;;5047261;28;20237;-61
2021/07/28 07:32:08;;;;;;;13.33;10.00;;;;;;;;;;5068056;28;20239;-60
2021/07/28 07:34:33;;;;;;;11.70;9.80;;;;;;;;;;5070317;28;20220;-60
2021/07/28 07:36:59;;;;;;;9.63;8.53;;;;;;;;;;5062259;28;20231;-60
2021/07/28 07:39:24;;;;;;;9.90;8.90;;;;;;;;;;5060260;28;20303;-61
2021/07/28 07:41:50;;;;;;;10.70;9.70;;;;;;;;;;5065039;28;20235;-60
2021/07/28 07:44:15;;;;;;;11.90;10.70;;;;;;;;;;5067165;28;20224;-60
2021/07/28 07:46:40;;;;;;;10.30;9.30;;;;;;;;;;5062220;28;20616;-60
2021/07/28 07:49:05;;;;;;;8.00;7.30;;;;;;;;;;5059892;28;20239;-60
2021/07/28 07:51:31;;;;;;;8.20;7.10;;;;;;;;;;5065388;28;20304;-60
2021/07/28 07:53:59;;;;;;;9.57;7.07;;;;;;;;;;5066601;28;20227;-60
2021/07/28 07:56:25;;;;;;;8.27;7.13;;;;;;;;;;5062285;28;20231;-61
2021/07/28 07:58:50;;;;;;;8.20;7.40;;;;;;;;;;5058603;28;20777;-61
2021/07/28 08:01:16;;;;;;;8.67;7.77;;;;;;;;;;5056899;28;20525;-60
2021/07/28 08:03:42;;;;;;;7.60;6.90;;;;;;;;;;5067027;28;20299;-60
2021/07/28 08:06:08;;;;;;;8.63;6.83;;;;;;;;;;5061225;28;20239;-60
2021/07/28 08:08:34;;;;;;;6.63;6.00;;;;;;;;;;5060288;28;20561;-61
2021/07/28 08:11:00;;;;;;;7.50;6.70;;;;;;;;;;5064738;28;20464;-60
2021/07/28 08:13:26;;;;;;;6.63;6.03;;;;;;;;;;5055281;28;20518;-61
2021/07/28 08:15:52;;;;;;;7.23;6.30;;;;;;;;;;5064970;28;20228;-61
2021/07/28 08:18:17;;;;;;;6.47;5.80;;;;;;;;;;5054440;28;20472;-60
2021/07/28 08:20:43;;;;;;;9.63;6.63;;;;;;;;;;5054810;28;20313;-60
2021/07/28 08:23:08;;;;;;;7.43;6.70;;;;;;;;;;5061048;28;20566;-60
2021/07/28 08:25:33;;;;;;;7.77;6.97;;;;;;;;;;5041523;28;20245;-60
2021/07/28 08:27:59;;;;;;;8.97;6.50;;;;;;;;;;5043417;28;20304;-61
2021/07/28 08:30:24;;;;;;;6.50;5.97;;;;;;;;;;5037249;28;20538;-61
2021/07/28 08:32:55;;;;;;;7.00;6.30;;;;;;;;;;5050020;28;20529;-61
2021/07/28 08:35:21;;;;;;;5.23;4.83;;;;;;;;;;5061804;28;20232;-60
2021/07/28 08:37:46;;;;;;;6.97;6.37;;;;;;;;;;5063554;28;20510;-60
2021/07/28 08:40:14;;;;;;;5.70;5.20;;;;;;;;;;5066906;28;22553;-61
2021/07/28 08:42:41;;;;;;;6.87;6.27;;;;;;;;;;5063346;28;20281;-61
2021/07/28 08:45:07;;;;;;;5.83;5.23;;;;;;;;;;5066053;28;20487;-60
2021/07/28 08:47:35;;;;;;;5.87;5.37;;;;;;;;;;5066683;28;20504;-60
2021/07/28 08:50:00;;;;;;;5.23;4.83;;;;;;;;;;5075489;28;20912;-61
2021/07/28 08:52:26;;;;;;;6.13;5.53;;;;;;;;;;5068230;28;20547;-60
2021/07/28 08:54:51;;;;;;;6.10;5.50;;;;;;;;;;5058607;28;20217;-61
2021/07/28 08:57:17;;;;;;;7.10;5.90;;;;;;;;;;5063405;28;20560;-60
2021/07/28 08:59:42;;;;;;;6.87;6.03;;;;;;;;;;5066101;28;20703;-61
2021/07/28 09:02:07;;;;;;;6.80;6.00;;;;;;;;;;5065256;28;20950;-61
2021/07/28 09:04:33;;;;;;;6.33;5.73;;;;;;;;;;5062178;28;20279;-60
2021/07/28 09:06:58;;;;;;;6.33;5.80;;;;;;;;;;5067654;28;20645;-61
2021/07/28 09:09:24;;;;;;;6.77;6.17;;;;;;;;;;5069958;28;20224;-63
2021/07/28 09:12:00;;;;;;;6.37;5.87;;;;;;;;;;5062674;28;20239;-62
2021/07/28 09:14:29;;;;;;;6.07;5.50;;;;;;;;;;5069118;28;20233;-60
2021/07/28 09:17:15;;;;;;;6.03;5.53;;;;;;;;;;5059903;28;20447;-60
2021/07/28 09:19:43;;;;;;;5.87;5.37;;;;;;;;;;5062314;28;20938;-60
2021/07/28 09:22:10;;;;;;;6.60;6.00;;;;;;;;;;5063327;28;20502;-61
2021/07/28 09:24:35;;;;;;;6.57;6.00;;;;;;;;;;5069645;28;20614;-61
2021/07/28 09:27:00;;;;;;;6.20;5.47;;;;;;;;;;5068491;28;20538;-60
2021/07/28 09:29:27;;;;;;;5.40;4.90;;;;;;;;;;5049334;28;20226;-60
2021/07/28 09:31:54;;;;;;;5.93;5.43;;;;;;;;;;5057440;28;20283;-60
2021/07/28 09:34:21;;;;;;;4.50;4.20;;;;;;;;;;5067873;28;20455;-61
2021/07/28 09:36:50;;;;;;;5.70;5.20;;;;;;;;;;5063702;28;20871;-60
2021/07/28 09:39:27;;;;;;;5.00;4.50;;;;;;;;;;5064659;28;20550;-60
2021/07/28 09:41:54;;;;;;;6.00;4.97;;;;;;;;;;5062022;28;20458;-60
2021/07/28 09:44:29;;;;;;;5.60;5.10;;;;;;;;;;5066303;28;20464;-60
2021/07/28 09:47:14;;;;;;;4.73;4.33;;;;;;;;;;5069118;28;20459;-61
2021/07/28 09:49:42;;;;;;;5.80;5.27;;;;;;;;;;5068856;28;20455;-62
2021/07/28 09:52:17;;;;;;;5.67;4.90;;;;;;;;;;5055981;28;20471;-60
2021/07/28 09:54:43;;;;;;;5.20;4.00;;;;;;;;;;5068872;28;20462;-60
2021/07/28 09:57:10;;;;;;;4.50;4.17;;;;;;;;;;5063833;28;20945;-60
2021/07/28 09:59:38;;;;;;;6.47;5.30;;;;;;;;;;5061604;28;20657;-61
2021/07/28 10:02:03;;;;;;;6.60;4.37;;;;;;;;;;5065968;28;20455;-60
2021/07/28 10:04:29;;;;;;;4.57;4.17;;;;;;;;;;5069409;28;20463;-60
2021/07/28 10:06:55;;;;;;;5.53;4.80;;;;;;;;;;5063944;28;20216;-60
2021/07/28 10:09:26;;;;;;;4.80;4.30;;;;;;;;;;5061212;28;20526;-61
2021/07/28 10:11:52;;;;;;;4.97;4.47;;;;;;;;;;5065895;28;20826;-60
2021/07/28 10:14:20;;;;;;;5.13;4.47;;;;;;;;;;5069042;28;20477;-61
2021/07/28 10:16:47;;;;;;;4.90;4.50;;;;;;;;;;5059255;28;20472;-61
2021/07/28 10:19:13;;;;;;;4.77;4.37;;;;;;;;;;5068786;28;20821;-61
2021/07/28 10:21:38;;;;;;;5.00;4.50;;;;;;;;;;5063598;28;20463;-61
2021/07/28 10:24:05;;;;;;;5.70;5.10;;;;;;;;;;5061775;28;20217;-61
2021/07/28 10:26:37;;;;;;;5.80;5.20;;;;;;;;;;5066204;28;20221;-60
2021/07/28 10:29:02;;;;;;;5.80;4.90;;;;;;;;;;5057204;28;20456;-60
2021/07/28 10:31:43;;;;;;;6.97;5.20;;;;;;;;;;5056900;28;20477;-61
2021/07/28 10:34:20;;;;;;;4.70;4.30;;;;;;;;;;5067967;28;20225;-60
2021/07/28 10:36:53;;;;;;;5.60;5.10;;;;;;;;;;5065752;28;20467;-62
2021/07/28 10:39:38;;;;;;;5.17;4.67;;;;;;;;;;5063573;28;20597;-61
2021/07/28 10:42:08;;;;;;;7.70;4.83;;;;;;;;;;5060972;28;20455;-60
2021/07/28 10:45:02;;;;;;;5.37;4.87;;;;;;;;;;5063681;28;20463;-61
2021/07/28 10:47:35;;;;;;;4.60;4.20;;;;;;;;;;5055359;28;20513;-61
2021/07/28 10:50:06;;;;;;;5.20;4.80;;;;;;;;;;5058765;28;20898;-60
2021/07/28 10:52:39;;;;;;;5.83;5.40;;;;;;;;;;5064388;28;20463;-60
2021/07/28 10:55:11;;;;;;;4.83;4.33;;;;;;;;;;5061334;28;20810;-60
2021/07/28 10:57:44;;;;;;;5.80;5.20;;;;;;;;;;5062592;28;20478;-61
2021/07/28 11:00:11;;;;;;;6.77;5.83;;;;;;;;;;5071683;28;20463;-61
2021/07/28 11:02:52;;;;;;;5.60;5.00;;;;;;;;;;5061631;28;20463;-60
2021/07/28 11:05:19;;;;;;;7.00;4.87;;;;;;;;;;5050976;28;20466;-61
2021/07/28 11:08:13;;;;;;;5.47;4.97;;;;;;;;;;5058809;28;20487;-61
2021/07/28 11:10:38;;;;;;;5.43;4.90;;;;;;;;;;5054102;28;20483;-61
2021/07/28 11:13:14;;;;;;;5.10;4.60;;;;;;;;;;5067552;28;20472;-61
2021/07/28 11:15:50;;;;;;;5.27;4.77;;;;;;;;;;5061109;28;20223;-60
2021/07/28 11:18:16;;;;;;;5.23;4.73;;;;;;;;;;5051780;28;20505;-60
2021/07/28 11:20:42;;;;;;;5.87;4.80;;;;;;;;;;5058212;28;21018;-60
2021/07/28 11:23:28;;;;;;;3.97;3.50;;;;;;;;;;5065805;28;20248;-61
2021/07/28 11:25:57;;;;;;;4.27;3.87;;;;;;;;;;5069529;28;20461;-61
2021/07/28 11:28:23;;;;;;;5.77;4.07;;;;;;;;;;5063488;28;20463;-61
2021/07/28 11:31:02;;;;;;;6.20;4.83;;;;;;;;;;5045917;28;20509;-61
2021/07/28 11:33:28;;;;;;;4.70;4.20;;;;;;;;;;5061665;28;20458;-61
2021/07/28 11:35:55;;;;;;;4.40;4.00;;;;;;;;;;5052338;28;20444;-61
2021/07/28 11:38:23;;;;;;;4.87;4.40;;;;;;;;;;5067432;28;20532;-61
2021/07/28 11:40:53;;;;;;;5.07;4.67;;;;;;;;;;5061330;28;20467;-61
2021/07/28 11:43:28;;;;;;;4.70;4.30;;;;;;;;;;5055350;28;20525;-61
2021/07/28 11:45:58;;;;;;;5.23;4.73;;;;;;;;;;5063907;28;20478;-60
2021/07/28 11:48:34;;;;;;;5.70;5.20;;;;;;;;;;5064130;28;20474;-61
2021/07/28 11:51:03;;;;;;;4.03;3.73;;;;;;;;;;5060904;28;20451;-61
2021/07/28 11:53:29;;;;;;;7.07;4.10;;;;;;;;;;5051527;28;20557;-60
2021/07/28 11:56:10;;;;;;;5.30;3.93;;;;;;;;;;5052073;28;20796;-60
2021/07/28 11:58:51;;;;;;;4.60;4.20;;;;;;;;;;5046341;28;20503;-61
2021/07/28 12:01:24;;;;;;;5.30;4.80;;;;;;;;;;5050899;28;20507;-60
2021/07/28 12:03:57;;;;;;;4.60;4.20;;;;;;;;;;5062702;28;20473;-60
2021/07/28 12:06:35;;;;;;;4.37;4.07;;;;;;;;;;5060109;28;20446;-60
2021/07/28 12:09:08;;;;;;;4.00;3.70;;;;;;;;;;5031300;28;20839;-64
2021/07/28 12:11:58;;;;;;;7.10;4.17;;;;;;;;;;5053720;28;20923;-64
2021/07/28 12:14:40;;;;;;;4.17;3.87;;;;;;;;;;5058510;28;20981;-65
2021/07/28 12:17:18;;;;;;;4.40;4.00;;;;;;;;;;5052788;28;20467;-64
2021/07/28 12:19:55;;;;;;;4.27;3.87;;;;;;;;;;5059685;28;20524;-65
2021/07/28 12:22:31;;;;;;;3.80;3.40;;;;;;;;;;5073445;28;20849;-64
2021/07/28 12:25:17;;;;;;;3.77;3.47;;;;;;;;;;5062916;28;20467;-65
2021/07/28 12:27:57;;;;;;;3.83;3.40;;;;;;;;;;5064170;28;20511;-66
2021/07/28 12:30:39;;;;;;;7.23;4.60;;;;;;;;;;5056899;28;20463;-65
2021/07/28 12:33:12;;;;;;;5.13;4.13;;;;;;;;;;5059697;28;20455;-65
2021/07/28 12:35:45;;;;;;;4.73;4.30;;;;;;;;;;5060981;28;20459;-64
2021/07/28 12:38:30;;;;;;;3.87;3.47;;;;;;;;;;5059905;28;20953;-65
2021/07/28 12:41:00;;;;;;;3.50;3.20;;;;;;;;;;5059146;28;20545;-64
2021/07/28 12:43:27;;;;;;;5.07;4.03;;;;;;;;;;5060988;28;20507;-65
2021/07/28 12:45:59;;;;;;;4.27;3.87;;;;;;;;;;5066735;28;20503;-64
2021/07/28 12:48:26;;;;;;;4.27;3.97;;;;;;;;;;5056550;28;20467;-65
2021/07/28 12:50:52;;;;;;;3.90;3.60;;;;;;;;;;5059671;28;20467;-65
2021/07/28 12:53:17;;;;;;;3.83;3.47;;;;;;;;;;5062346;28;20813;-64
2021/07/28 12:55:43;;;;;;;4.43;4.03;;;;;;;;;;5068811;28;20472;-65
2021/07/28 12:58:08;;;;;;;3.60;3.30;;;;;;;;;;5059189;28;20229;-65
2021/07/28 13:00:34;;;;;;;4.10;3.80;;;;;;;;;;5066341;28;20462;-65
2021/07/28 13:02:59;;;;;;;4.83;4.27;;;;;;;;;;5064294;28;20255;-65
2021/07/28 13:05:26;;;;;;;4.33;3.93;;;;;;;;;;5058016;28;20225;-64
2021/07/28 13:08:07;;;;;;;4.60;3.90;;;;;;;;;;5073009;28;20224;-66
2021/07/28 13:10:33;;;;;;;3.77;3.47;;;;;;;;;;5068447;28;20539;-64
2021/07/28 13:12:58;;;;;;;3.90;3.60;;;;;;;;;;5058002;28;20566;-64
2021/07/28 13:15:23;;;;;;;3.60;3.30;;;;;;;;;;5069016;28;20224;-65
2021/07/28 13:17:49;;;;;;;3.73;3.43;;;;;;;;;;5065848;28;20236;-64
2021/07/28 13:20:14;;;;;;;4.90;3.60;;;;;;;;;;5066236;28;20555;-64
2021/07/28 13:22:39;;;;;;;5.20;3.70;;;;;;;;;;5062281;28;20303;-64
2021/07/28 13:25:05;;;;;;;3.53;3.23;;;;;;;;;;5069897;28;20235;-64
2021/07/28 13:27:31;;;;;;;4.13;3.63;;;;;;;;;;5071631;28;20217;-65
2021/07/28 13:29:56;;;;;;;4.70;3.90;;;;;;;;;;5057950;28;20608;-64
2021/07/28 13:32:22;;;;;;;3.60;3.30;;;;;;;;;;5061804;28;20278;-64
2021/07/28 13:34:47;;;;;;;3.87;3.57;;;;;;;;;;5061980;28;20295;-64
2021/07/28 13:37:12;;;;;;;4.20;3.77;;;;;;;;;;5055380;28;20621;-65
2021/07/28 13:39:37;;;;;;;4.20;3.80;;;;;;;;;;5067136;28;20688;-65
2021/07/28 13:42:03;;;;;;;3.93;3.60;;;;;;;;;;5062760;28;20224;-65
2021/07/28 13:44:28;;;;;;;4.00;3.60;;;;;;;;;;5060823;28;20223;-64
2021/07/28 13:46:53;;;;;;;3.87;3.37;;;;;;;;;;5062237;28;20220;-64
2021/07/28 13:49:19;;;;;;;3.80;3.50;;;;;;;;;;5063799;28;20668;-64
2021/07/28 13:51:44;;;;;;;3.57;3.30;;;;;;;;;;5063709;28;20217;-65
2021/07/28 13:54:09;;;;;;;4.10;3.70;;;;;;;;;;5056126;28;20251;-64
2021/07/28 13:56:34;;;;;;;4.40;3.50;;;;;;;;;;5059108;28;20550;-64
2021/07/28 13:59:00;;;;;;;3.47;3.10;;;;;;;;;;5065212;28;20260;-65
2021/07/28 14:01:25;;;;;;;4.23;3.83;;;;;;;;;;5052667;28;20220;-65
2021/07/28 14:03:50;;;;;;;4.53;4.13;;;;;;;;;;5055601;28;20224;-65
2021/07/28 14:06:15;;;;;;;5.23;4.83;;;;;;;;;;5068510;28;20244;-65
2021/07/28 14:08:41;;;;;;;5.00;3.30;;;;;;;;;;5054955;28;20606;-64
2021/07/28 14:11:09;;;;;;;3.10;2.90;;;;;;;;;;5057906;28;20228;-65
2021/07/28 14:13:35;;;;;;;3.93;3.37;;;;;;;;;;5065191;28;20244;-64
2021/07/28 14:16:03;;;;;;;6.20;3.17;;;;;;;;;;5057610;28;20479;-64
2021/07/28 14:18:28;;;;;;;4.90;3.53;;;;;;;;;;5056645;28;20471;-65
2021/07/28 14:20:53;;;;;;;4.33;3.93;;;;;;;;;;5057375;28;20478;-64
2021/07/28 14:23:19;;;;;;;3.80;3.50;;;;;;;;;;5065588;28;20267;-63
2021/07/28 14:25:44;;;;;;;3.73;3.20;;;;;;;;;;5055954;28;20292;-64
2021/07/28 14:28:09;;;;;;;3.97;3.60;;;;;;;;;;5054430;28;20256;-65
2021/07/28 14:30:35;;;;;;;4.03;3.63;;;;;;;;;;5045002;28;20648;-65
2021/07/28 14:33:00;;;;;;;3.50;3.20;;;;;;;;;;5055757;28;20251;-64
2021/07/28 14:35:25;;;;;;;3.17;2.87;;;;;;;;;;5055669;28;20244;-65
2021/07/28 14:37:50;;;;;;;3.93;3.63;;;;;;;;;;5064109;28;20262;-65
2021/07/28 14:40:16;;;;;;;3.30;3.00;;;;;;;;;;5060037;28;20228;-64
2021/07/28 14:42:41;;;;;;;3.90;3.40;;;;;;;;;;5053152;28;20554;-64